»·PEaware :: DAL758 KABQ-KAMA

DAL758 :: KABQ-KAMA

FLIGHT INFORMATION

Flight Status: Arrived
Operator:
Delta Air Lines
More flights by this operator :: More flights under this callsign
Pilot: Max W. (2591)
Aircraft: AIRBUS A330-200
(A332)
More flights by this aircraft type
Origin: KABQ Albuquerque Intl Sunport
United States
Destination: KAMA Amarillo Intl
United States
More flights between these airports :: More routes between these airports
Route: +GRZZZ3 TCC
File this flight plan on PilotEdge
Remarks:
Altitude:
(Current/Filed)
26,000ft
Speed:
(Current/Filed)
450kts
Departed: 27-Jul-17 07:28 PM
Arrived: 27-Jul-17 08:08 PM
Distance/Time
Traveled:
235nm/0:40
Distance/Time
To Go:
Arrived

Flight Plot

Page will automatically refresh every two minutes.

Flight plan parsing failed; only flown route is shown


Map Options




Map Legend


Flown Route
Filed Route
Departure Airport
Arrival Airport
Navaid (VOR, NDB)
Fix

Horizontal Profiles

Position Reports

Time Latitude Longitude Heading Altitude Ground
Speed
27-Jul-17 19:06 35.047955 -106.614298 209 5367ft 0kts
27-Jul-17 19:07 35.047955 -106.614298 209 5367ft 0kts
27-Jul-17 19:08 35.047955 -106.614298 209 5367ft 0kts
27-Jul-17 19:09 35.047955 -106.614298 209 5367ft 0kts
27-Jul-17 19:10 35.047955 -106.614298 209 5367ft 0kts
27-Jul-17 19:11 35.047955 -106.614298 209 5367ft 0kts
27-Jul-17 19:12 35.047955 -106.614298 209 5367ft 0kts
27-Jul-17 19:13 35.047955 -106.614298 209 5367ft 0kts
27-Jul-17 19:14 35.047955 -106.614298 209 5367ft 0kts
27-Jul-17 19:15 35.047955 -106.614298 209 5367ft 0kts
27-Jul-17 19:16 35.047955 -106.614298 209 5367ft 0kts
27-Jul-17 19:17 35.047955 -106.614298 209 5367ft 0kts
27-Jul-17 19:18 35.047955 -106.614298 209 5367ft 0kts
27-Jul-17 19:19 35.047955 -106.614298 209 5367ft 0kts
27-Jul-17 19:20 35.047955 -106.614298 209 5367ft 0kts
27-Jul-17 19:21 35.047955 -106.614298 209 5367ft 0kts
27-Jul-17 19:22 35.047955 -106.614298 209 5367ft 0kts
27-Jul-17 19:23 35.047955 -106.614298 209 5367ft 0kts
27-Jul-17 19:24 35.047955 -106.614298 209 5367ft 0kts
27-Jul-17 19:25 35.048016 -106.614254 212 5367ft 0kts
27-Jul-17 19:26 35.048216 -106.614360 96 5367ft 0kts
27-Jul-17 19:27 35.048217 -106.614373 87 5367ft 1kts
27-Jul-17 19:28 35.046026 -106.613575 214 5367ft 15kts
27-Jul-17 19:29 35.045621 -106.618165 268 5367ft 13kts
27-Jul-17 19:30 35.044630 -106.621411 175 5367ft 11kts
27-Jul-17 19:31 35.044259 -106.596178 93 5487ft 167kts
27-Jul-17 19:32 35.054129 -106.541723 29 7925ft 195kts
27-Jul-17 19:33 35.128823 -106.573039 341 9684ft 306kts
27-Jul-17 19:34 35.201874 -106.597077 1 10903ft 358kts
27-Jul-17 19:35 35.299743 -106.558289 47 13119ft 393kts
27-Jul-17 19:36 35.357083 -106.423948 83 16696ft 398kts
27-Jul-17 19:37 35.365137 -106.308989 84 18757ft 415kts
27-Jul-17 19:38 35.373000 -106.165931 84 21221ft 430kts
27-Jul-17 19:39 35.380850 -106.017038 84 23458ft 446kts
27-Jul-17 19:40 35.388786 -105.864980 84 25900ft 450kts
27-Jul-17 19:41 35.396745 -105.712342 85 26369ft 450kts
27-Jul-17 19:42 35.404826 -105.559823 85 26372ft 450kts
27-Jul-17 19:43 35.414092 -105.381251 86 26373ft 450kts
27-Jul-17 19:44 35.401607 -105.254158 96 26370ft 452kts
27-Jul-17 19:45 35.382544 -105.102079 97 26373ft 452kts
27-Jul-17 19:46 35.363113 -104.949600 97 26373ft 452kts
27-Jul-17 19:47 35.344007 -104.798410 97 26373ft 452kts
27-Jul-17 19:48 35.324321 -104.646705 97 26373ft 452kts
27-Jul-17 19:49 35.304336 -104.494609 97 26373ft 452kts
27-Jul-17 19:50 35.284238 -104.343187 97 26246ft 453kts
27-Jul-17 19:51 35.263737 -104.190237 97 26127ft 455kts
27-Jul-17 19:52 35.242799 -104.035448 97 26130ft 480kts
27-Jul-17 19:53 35.220546 -103.872268 99 26129ft 489kts
27-Jul-17 19:54 35.198246 -103.708447 99 26130ft 489kts
27-Jul-17 19:55 35.184071 -103.544150 88 26126ft 489kts
27-Jul-17 19:56 35.186766 -103.381022 86 25483ft 466kts
27-Jul-17 19:57 35.190135 -103.227691 86 23653ft 442kts
27-Jul-17 19:58 35.193327 -103.077057 89 21273ft 431kts
27-Jul-17 19:59 35.196098 -102.935960 88 19627ft 404kts
27-Jul-17 20:00 35.198940 -102.800469 87 17231ft 397kts
27-Jul-17 20:01 35.201222 -102.671372 88 15270ft 382kts
27-Jul-17 20:02 35.202758 -102.547614 90 13133ft 374kts
27-Jul-17 20:03 35.204555 -102.421698 89 11172ft 359kts
27-Jul-17 20:04 35.206387 -102.312498 89 10491ft 291kts
27-Jul-17 20:05 35.207253 -102.215319 89 8583ft 283kts
27-Jul-17 20:06 35.206246 -102.120493 89 7008ft 276kts
27-Jul-17 20:07 35.186933 -102.032117 115 5967ft 274kts
27-Jul-17 20:08 35.154678 -101.955318 115 5922ft 222kts
27-Jul-17 20:09 35.144670 -101.883937 86 5186ft 200kts
27-Jul-17 20:10 35.164479 -101.830860 54 3708ft 152kts
27-Jul-17 20:11 35.169834 -101.821255 56 3662ft 0kts
27-Jul-17 20:12 35.169834 -101.821255 56 3662ft 0kts
27-Jul-17 20:13 35.169834 -101.821255 56 3662ft 0kts
27-Jul-17 20:20 35.170930 -101.828200 0 3662ft 0kts

Navigation Log

Ident Type
Flight plan parsing failed, navigation log unavailable